METAR AND TAF INFORMATION
METAR FOR KRNT
ADDS - METARS form results

(2027 UTC 07 August 2020)
Data provider http://aviationweather.gov/metar/data/
 
METAR text: KRNT 071953Z 19007KT 10SM FEW041 21/10 A3017 RMK AO2 SLP222 T02110100
Conditions at: KRNT (RENTON , WA, US) observed 1953 UTC 07 August 2020
Temperature: 21.1°C (70°F)
Dewpoint: 10.0°C (50°F) [RH = 49%]
Pressure (altimeter): 30.17 inches Hg (1021.8 mb)
[Sea-level pressure: 1022.2 mb]
Winds: from the S (190 degrees) at 8 MPH (7 knots; 3.6 m/s)
Visibility: 10 or more miles (16+ km)
Ceiling: at least 12,000 feet AGL
Clouds: few clouds at 4100 feet AGL
Weather: no significant weather observed at this time

 AIRPORT MAP

 RUNWAY INFORMATION
Runway 16 Runway length 5382 ft Runway width 200 ft
Runway elevation 24 ft Runway displaced threshold 300 ft Runway heading 174
Runway 34 Runway length 5382 ft Runway width 200 ft
Runway elevation 32 ft Runway displaced threshold 340 ft Runway heading 354

 AIRPORT FREQUENCIES
Type A/D Name SEATTLE AP Frequency 119.2 MHZ
Type ATIS Name ATIS Frequency 126.95 MHZ
Type CTAF Name CTAF Frequency 124.7 MHZ
Type GND Name GND Frequency 121.6 MHZ
Type TWR Name TWR Frequency 124.7 MHZ
Type UNIC Name UNICOM Frequency 122.85 MHZ

 AIRPORT NEAR NAVIGATION AIDS
Type NDB Name Renton Frequency 353 KHZ



Powered by Virtual Airlines Manager [v2.6.2]

Impressum | Datenschutz